CheckWX is a tool to help pilots better visualize weather data.  It is not intended as a substitute for an official pre-flight weather briefing.

08:12:42 UTC

KSJN METAR
St Johns Industrial Airpark
St Johns, Arizona, USA
Current

9 mins ago

KSJN 220804Z AUTO 08008KT 3/4SM -SN BR VV014 M02/M03 A2963 RMK AO2 P0001 T10171028
Observed
Feb-22 @ 08:04 UTC
Wind
  • 080° at 8 KTS
Visibility
3/4 SM
Flight Rules
LIFR
Conditions
Light Snow, Mist
Cloud Levels
  • Vertical visibility at 1,400' AGL
Temperature
-2°C / 28°F
Dewpoint
-3°C / 27°F
Humidity
93%
Altimeter
29.63" Hg
Pressure
1003.42 hPa
Current Rain
0.01"
Previous

19 mins ago

KSJN 220754Z AUTO 09003KT 1 3/4SM -SN BR FEW014 OVC021 M02/M03 A2964 RMK AO2 SLP021 P0002 T10171028
Observed
Feb-22 @ 07:54 UTC
Wind
  • 090° at 3 KTS
Visibility
1 3/4 SM
Flight Rules
IFR
Conditions
Light Snow, Mist
Cloud Levels
  • Few at 1,400' AGL
  • Overcast at 2,100' AGL
Temperature
-2°C / 28°F
Dewpoint
-3°C / 27°F
Humidity
93%
Altimeter
29.64" Hg
Pressure
1002.1 hPa
Current Rain
0.02"
Previous

40 mins ago

KSJN 220733Z AUTO 11007KT 6SM -SN BR BKN038 OVC050 M02/M03 A2964 RMK AO2 P0002 T10221033
Observed
Feb-22 @ 07:33 UTC
Wind
  • 110° at 7 KTS
Visibility
6 SM
Flight Rules
VFR
Conditions
Light Snow, Mist
Cloud Levels
  • Broken at 3,800' AGL
  • Overcast at 5,000' AGL
Temperature
-2°C / 28°F
Dewpoint
-3°C / 27°F
Humidity
93%
Altimeter
29.64" Hg
Pressure
1003.72 hPa
Current Rain
0.02"